createdAt,value
2022-10-30T00:00:11.227Z,4.00
2022-10-30T00:02:39.593Z,3.17
2022-10-30T00:05:09.806Z,3.63
2022-10-30T00:07:38.043Z,2.37
2022-10-30T00:10:06.640Z,4.93
2022-10-30T00:12:34.869Z,2.33
2022-10-30T00:15:03.177Z,4.83
2022-10-30T00:17:31.416Z,2.23
2022-10-30T00:19:59.668Z,2.30
2022-10-30T00:22:29.308Z,1.40
2022-10-30T00:24:57.540Z,2.00
2022-10-30T00:27:25.771Z,1.70
2022-10-30T00:29:54.023Z,3.97
2022-10-30T00:32:22.348Z,2.80
2022-10-30T00:34:50.578Z,1.43
2022-10-30T00:37:18.833Z,2.17
2022-10-30T00:39:48.464Z,4.40
2022-10-30T00:42:17.007Z,2.97
2022-10-30T00:44:47.091Z,2.53
2022-10-30T00:47:17.677Z,1.27
2022-10-30T00:49:49.549Z,1.63
2022-10-30T00:52:17.762Z,1.53
2022-10-30T00:54:46.017Z,1.60
2022-10-30T00:57:15.640Z,2.07
2022-10-30T00:59:43.869Z,1.63
2022-10-30T01:02:12.290Z,1.63
2022-10-30T01:04:40.689Z,1.40
2022-10-30T01:07:09.270Z,2.57
2022-10-30T01:09:37.505Z,1.20
2022-10-30T01:12:05.826Z,2.83
2022-10-30T01:14:35.434Z,2.53
2022-10-30T01:17:08.722Z,1.73
2022-10-30T01:19:38.771Z,1.20
2022-10-30T01:22:16.187Z,2.93
2022-10-30T01:24:47.887Z,1.57
2022-10-30T01:27:19.373Z,3.13
2022-10-30T01:29:52.760Z,2.40
2022-10-30T01:32:23.563Z,1.57
2022-10-30T01:34:53.385Z,1.57
2022-10-30T01:37:22.243Z,1.43
2022-10-30T01:39:50.513Z,7.70
2022-10-30T01:42:37.480Z,1.73
2022-10-30T01:45:07.687Z,1.43
2022-10-30T01:47:36.825Z,1.40
2022-10-30T01:50:12.159Z,2.03
2022-10-30T01:52:43.121Z,1.90
2022-10-30T01:55:14.463Z,1.80
2022-10-30T01:57:43.152Z,2.77
2022-10-30T02:00:13.597Z,2.50
2022-10-30T02:02:41.996Z,1.10
2022-10-30T02:05:10.812Z,1.43
2022-10-30T02:07:39.058Z,1.07
2022-10-30T02:10:07.538Z,1.30
2022-10-30T02:12:35.825Z,3.17
2022-10-30T02:15:04.098Z,6.70
2022-10-30T02:17:34.382Z,2.07
2022-10-30T02:20:02.644Z,1.10
2022-10-30T02:22:32.305Z,2.60
2022-10-30T02:25:00.648Z,1.17
2022-10-30T02:27:28.895Z,3.07
2022-10-30T02:29:57.134Z,1.67
2022-10-30T02:32:26.040Z,1.63
2022-10-30T02:34:54.261Z,1.47
2022-10-30T02:37:23.276Z,1.57
2022-10-30T02:39:52.901Z,2.00
2022-10-30T02:42:23.156Z,2.60
2022-10-30T02:44:51.456Z,1.00
2022-10-30T02:47:19.697Z,1.27
2022-10-30T02:49:47.943Z,2.47
2022-10-30T02:52:16.233Z,3.30
2022-10-30T02:54:44.482Z,1.67
2022-10-30T02:57:14.086Z,2.20
2022-10-30T02:59:42.321Z,3.43
2022-10-30T03:02:10.655Z,2.63
2022-10-30T03:04:39.001Z,0.97
2022-10-30T03:07:07.277Z,1.70
2022-10-30T03:09:35.557Z,2.30
2022-10-30T03:12:03.813Z,1.93
2022-10-30T03:14:33.427Z,3.73
2022-10-30T03:17:01.661Z,1.13
2022-10-30T03:19:29.928Z,1.87
2022-10-30T03:21:58.242Z,1.10
2022-10-30T03:24:26.503Z,1.60
2022-10-30T03:26:54.791Z,2.20
2022-10-30T03:29:23.059Z,1.00
2022-10-30T03:31:52.677Z,2.73
2022-10-30T03:34:20.930Z,1.43
2022-10-30T03:36:49.238Z,1.57
2022-10-30T03:39:17.520Z,2.67
2022-10-30T03:41:45.869Z,2.77
2022-10-30T03:44:14.253Z,1.57
2022-10-30T03:46:42.512Z,1.47
2022-10-30T03:49:12.127Z,2.50
2022-10-30T03:51:40.455Z,1.23
2022-10-30T03:54:08.709Z,4.10
2022-10-30T03:56:36.956Z,1.70
2022-10-30T03:59:05.198Z,1.17
2022-10-30T04:01:33.556Z,0.97
2022-10-30T04:04:01.944Z,4.00
2022-10-30T04:06:31.602Z,1.00
2022-10-30T04:08:59.861Z,4.13
2022-10-30T04:11:28.148Z,1.13
2022-10-30T04:13:56.432Z,2.40
2022-10-30T04:16:24.701Z,2.60
2022-10-30T04:18:52.948Z,1.80
2022-10-30T04:21:21.223Z,1.43
2022-10-30T04:23:50.848Z,1.10
2022-10-30T04:26:19.090Z,1.57
2022-10-30T04:28:49.227Z,1.00
2022-10-30T04:31:17.448Z,2.27
2022-10-30T04:33:45.706Z,0.77
2022-10-30T04:36:13.973Z,3.57
2022-10-30T04:38:42.224Z,1.63
2022-10-30T04:41:11.881Z,1.40
2022-10-30T04:43:40.139Z,3.20
2022-10-30T04:46:08.412Z,1.40
2022-10-30T04:48:37.241Z,27.93
2022-10-30T04:51:05.630Z,1.23
2022-10-30T04:53:33.912Z,1.77
2022-10-30T04:56:02.181Z,1.57
2022-10-30T04:58:31.857Z,1.30
2022-10-30T05:01:03.334Z,2.27
2022-10-30T05:03:31.964Z,1.13
2022-10-30T05:06:00.991Z,2.00
2022-10-30T05:08:29.291Z,1.43
2022-10-30T05:10:57.567Z,4.60
2022-10-30T05:13:25.823Z,1.67
2022-10-30T05:15:56.882Z,2.80
2022-10-30T05:18:25.150Z,1.67
2022-10-30T05:20:53.382Z,1.93
2022-10-30T05:23:21.629Z,1.43
2022-10-30T05:25:49.877Z,1.67
2022-10-30T05:28:18.126Z,1.87
2022-10-30T05:30:46.375Z,1.67
2022-10-30T05:33:18.104Z,3.20
2022-10-30T05:35:46.344Z,1.90
2022-10-30T05:38:14.623Z,1.63
2022-10-30T05:40:42.885Z,1.20
2022-10-30T05:43:11.114Z,1.33
2022-10-30T05:45:39.398Z,1.00
2022-10-30T05:48:07.951Z,1.80
2022-10-30T05:50:37.555Z,1.07
2022-10-30T05:53:06.012Z,2.87
2022-10-30T05:55:34.292Z,0.80
2022-10-30T05:58:02.862Z,1.50
2022-10-30T06:00:31.582Z,1.20
2022-10-30T06:03:03.361Z,3.77
2022-10-30T06:05:32.451Z,3.10
2022-10-30T06:08:02.086Z,1.30
2022-10-30T06:10:30.317Z,1.50
2022-10-30T06:12:59.177Z,1.87
2022-10-30T06:15:27.727Z,4.03
2022-10-30T06:17:56.071Z,4.10
2022-10-30T06:20:24.755Z,1.13
2022-10-30T06:22:56.148Z,1.00
2022-10-30T06:25:25.848Z,2.57
2022-10-30T06:27:54.082Z,1.23
2022-10-30T06:30:22.666Z,1.97
2022-10-30T06:32:50.926Z,1.87
2022-10-30T06:35:19.268Z,1.43
2022-10-30T06:37:48.037Z,1.47
2022-10-30T06:40:16.572Z,1.90
2022-10-30T06:42:46.497Z,1.83
2022-10-30T06:45:15.116Z,3.03
2022-10-30T06:47:43.362Z,1.70
2022-10-30T06:50:12.130Z,2.17
2022-10-30T06:52:40.476Z,3.30
2022-10-30T06:55:08.966Z,1.03
2022-10-30T06:57:37.188Z,1.07
2022-10-30T07:00:07.726Z,3.23
2022-10-30T07:02:36.070Z,2.47
2022-10-30T07:05:04.304Z,0.83
2022-10-30T07:07:32.698Z,1.30
2022-10-30T07:10:00.917Z,0.87
2022-10-30T07:12:29.364Z,1.67
2022-10-30T07:14:57.730Z,1.40
2022-10-30T07:17:27.310Z,1.97
2022-10-30T07:19:55.527Z,3.43
2022-10-30T07:22:23.916Z,1.13
2022-10-30T07:24:52.186Z,2.10
2022-10-30T07:27:20.425Z,1.13
2022-10-30T07:29:48.802Z,1.17
2022-10-30T07:32:17.038Z,2.13
2022-10-30T07:34:46.651Z,1.60
2022-10-30T07:37:14.897Z,1.73
2022-10-30T07:39:43.163Z,2.73
2022-10-30T07:42:11.541Z,2.00
2022-10-30T07:44:39.896Z,1.30
2022-10-30T07:47:08.156Z,2.03
2022-10-30T07:49:36.400Z,0.87
2022-10-30T07:52:06.428Z,2.50
2022-10-30T07:54:34.757Z,2.30
2022-10-30T07:57:03.266Z,1.33
2022-10-30T07:59:31.645Z,1.37
2022-10-30T08:02:00.805Z,2.40
2022-10-30T08:04:29.281Z,1.40
2022-10-30T08:06:57.621Z,1.10
2022-10-30T08:09:27.282Z,4.13
2022-10-30T08:11:55.510Z,1.80
2022-10-30T08:14:23.891Z,4.13
2022-10-30T08:16:52.473Z,1.20
2022-10-30T08:19:20.744Z,1.57
2022-10-30T08:21:49.012Z,2.67
2022-10-30T08:24:17.276Z,1.10
2022-10-30T08:26:46.852Z,1.53
2022-10-30T08:29:15.319Z,3.13
2022-10-30T08:31:43.562Z,2.17
2022-10-30T08:34:11.844Z,3.50
2022-10-30T08:36:42.684Z,3.90
2022-10-30T08:39:13.580Z,4.40
2022-10-30T08:41:41.995Z,1.37
2022-10-30T08:44:11.607Z,4.80
2022-10-30T08:46:39.982Z,2.93
2022-10-30T08:49:08.246Z,2.63
2022-10-30T08:51:36.621Z,2.00
2022-10-30T08:54:04.992Z,3.73
2022-10-30T08:56:33.392Z,3.57
2022-10-30T08:59:01.678Z,2.80
2022-10-30T09:01:31.463Z,6.77
2022-10-30T09:03:59.964Z,1.13
2022-10-30T09:06:28.220Z,7.27
2022-10-30T09:08:56.492Z,5.40
2022-10-30T09:11:24.925Z,2.17
2022-10-30T09:13:53.174Z,3.53
2022-10-30T09:16:21.407Z,4.70
2022-10-30T09:18:51.031Z,2.93
2022-10-30T09:21:19.300Z,1.57
2022-10-30T09:23:47.680Z,1.30
2022-10-30T09:26:19.849Z,2.13
2022-10-30T09:28:49.098Z,2.27
2022-10-30T09:31:17.327Z,1.80
2022-10-30T09:33:45.607Z,3.97
2022-10-30T09:36:18.068Z,2.47
2022-10-30T09:38:49.521Z,2.47
2022-10-30T09:41:22.704Z,4.23
2022-10-30T09:43:54.172Z,2.93
2022-10-30T09:46:25.308Z,6.20
2022-10-30T09:49:01.727Z,2.87
2022-10-30T09:51:39.146Z,2.93
2022-10-30T09:54:09.114Z,3.37
2022-10-30T09:56:38.276Z,4.40
2022-10-30T09:59:09.602Z,1.93
2022-10-30T10:01:39.517Z,2.63
2022-10-30T10:04:09.590Z,6.17
2022-10-30T10:06:39.294Z,4.73
2022-10-30T10:09:09.045Z,3.60
2022-10-30T10:11:37.947Z,2.00
2022-10-30T10:14:08.562Z,3.43
2022-10-30T10:16:37.070Z,2.20
2022-10-30T10:19:07.920Z,2.97
2022-10-30T10:21:37.089Z,4.70
2022-10-30T10:24:11.415Z,5.40
2022-10-30T10:26:45.803Z,3.63
2022-10-30T10:29:26.646Z,4.53
2022-10-30T10:31:58.465Z,4.30
2022-10-30T10:34:30.399Z,3.27
2022-10-30T10:37:00.133Z,4.00
2022-10-30T10:39:33.099Z,3.43
2022-10-30T10:42:04.979Z,3.00
2022-10-30T10:44:36.215Z,3.53
2022-10-30T10:47:08.264Z,4.73
2022-10-30T10:49:45.372Z,4.30
2022-10-30T10:52:13.808Z,4.30
2022-10-30T10:54:44.068Z,3.03
2022-10-30T10:57:14.877Z,4.00
2022-10-30T10:59:44.024Z,7.70
2022-10-30T11:02:17.819Z,4.70
2022-10-30T11:04:47.422Z,2.60
2022-10-30T11:07:18.261Z,2.50
2022-10-30T11:09:47.906Z,4.03
2022-10-30T11:12:16.214Z,15.47
2022-10-30T11:14:44.660Z,6.87
2022-10-30T11:17:15.041Z,8.57
2022-10-30T11:19:45.453Z,3.37
2022-10-30T11:22:18.938Z,7.53
2022-10-30T11:24:48.675Z,3.70
2022-10-30T11:27:20.419Z,4.07
2022-10-30T11:29:49.806Z,6.50
2022-10-30T11:32:21.504Z,5.17
2022-10-30T11:34:49.764Z,4.30
2022-10-30T11:37:31.557Z,4.53
2022-10-30T11:40:08.355Z,4.67
2022-10-30T11:42:36.760Z,10.33
2022-10-30T11:45:05.128Z,5.70
2022-10-30T11:50:03.898Z,2.80
2022-10-30T11:52:32.144Z,4.80
2022-10-30T11:55:01.931Z,5.00
2022-10-30T11:57:32.886Z,5.70
2022-10-30T12:00:05.270Z,5.10
2022-10-30T12:02:34.089Z,6.43
2022-10-30T12:05:02.859Z,3.43
2022-10-30T12:07:32.072Z,3.17
2022-10-30T12:10:01.917Z,5.53
2022-10-30T12:12:33.022Z,3.17
2022-10-30T12:15:09.359Z,4.60
2022-10-30T12:17:37.582Z,3.80
2022-10-30T12:20:06.225Z,3.77
2022-10-30T12:22:34.795Z,5.87
2022-10-30T12:25:04.713Z,3.50
2022-10-30T12:27:36.285Z,4.53
2022-10-30T12:30:08.865Z,2.70
2022-10-30T12:32:43.835Z,3.90
2022-10-30T12:35:17.276Z,3.27
2022-10-30T12:37:45.651Z,1.40
2022-10-30T12:40:14.279Z,3.67
2022-10-30T12:42:44.846Z,2.13
2022-10-30T12:45:14.987Z,2.57
2022-10-30T12:47:43.933Z,4.07
2022-10-30T12:50:16.158Z,2.23
2022-10-30T12:52:47.248Z,2.77
2022-10-30T12:55:16.808Z,4.23
2022-10-30T12:57:47.464Z,4.00
2022-10-30T13:00:16.503Z,6.20
2022-10-30T13:02:47.629Z,5.83
2022-10-30T13:05:20.068Z,2.03
2022-10-30T13:07:49.365Z,2.93
2022-10-30T13:10:21.882Z,2.73
2022-10-30T13:12:52.406Z,2.70
2022-10-30T13:15:23.041Z,5.10
2022-10-30T13:17:51.311Z,3.07
2022-10-30T13:20:19.613Z,2.57
2022-10-30T13:22:49.268Z,2.60
2022-10-30T13:25:18.762Z,2.17
2022-10-30T13:27:47.686Z,2.63
2022-10-30T13:30:17.456Z,1.30
2022-10-30T13:32:48.724Z,2.63
2022-10-30T13:35:20.569Z,1.03
2022-10-30T13:37:49.707Z,3.90
2022-10-30T13:40:19.417Z,3.37
2022-10-30T13:42:58.907Z,10.63
2022-10-30T13:45:49.704Z,2.20
2022-10-30T13:48:19.741Z,2.07
2022-10-30T13:50:51.915Z,1.53
2022-10-30T13:53:20.961Z,2.40
2022-10-30T13:55:49.206Z,32.50
2022-10-30T13:58:18.470Z,32.17
2022-10-30T14:00:52.759Z,42.67
2022-10-30T14:03:24.172Z,72.50
2022-10-30T14:05:54.666Z,41.17
2022-10-30T14:08:25.318Z,58.53
2022-10-30T14:10:57.597Z,337.67
2022-10-30T14:13:28.886Z,612.93
2022-10-30T14:15:59.896Z,332.47
2022-10-30T14:18:32.154Z,402.20
2022-10-30T14:21:00.709Z,365.33
2022-10-30T14:23:30.671Z,299.83
2022-10-30T14:26:14.784Z,298.80
2022-10-30T14:28:43.500Z,219.80
2022-10-30T14:31:13.414Z,165.63
2022-10-30T14:33:46.552Z,132.53
2022-10-30T14:36:15.687Z,117.53
2022-10-30T14:38:44.063Z,105.53
2022-10-30T14:41:17.451Z,79.63
2022-10-30T14:43:47.068Z,84.10
2022-10-30T14:46:18.268Z,52.27
2022-10-30T14:48:47.059Z,51.40
2022-10-30T14:51:16.456Z,45.80
2022-10-30T14:53:49.461Z,41.57
2022-10-30T14:56:22.959Z,44.63
2022-10-30T14:59:10.827Z,31.87
2022-10-30T15:01:43.633Z,27.90
2022-10-30T15:04:17.453Z,26.67
2022-10-30T15:06:51.431Z,23.00
2022-10-30T15:09:22.670Z,19.40
2022-10-30T15:12:00.503Z,26.67
2022-10-30T15:14:48.648Z,20.60
2022-10-30T15:17:24.107Z,19.07
2022-10-30T15:19:52.555Z,23.43
2022-10-30T15:22:21.111Z,15.13
2022-10-30T15:24:49.402Z,17.80
2022-10-30T15:27:18.295Z,12.40
2022-10-30T15:29:46.937Z,14.00
2022-10-30T15:32:17.227Z,9.37
2022-10-30T15:34:55.702Z,15.90
2022-10-30T15:37:24.040Z,12.33
2022-10-30T15:39:53.445Z,9.07
2022-10-30T15:42:22.572Z,10.10
2022-10-30T15:44:50.849Z,17.63
2022-10-30T15:47:19.294Z,12.50
2022-10-30T15:49:50.109Z,11.27
2022-10-30T15:52:21.338Z,18.60
2022-10-30T15:54:50.193Z,9.73
2022-10-30T15:57:49.418Z,14.40
2022-10-30T16:00:09.182Z,12.40
2022-10-30T16:02:37.590Z,7.73
2022-10-30T16:05:20.171Z,8.77
2022-10-30T16:07:49.813Z,6.10
2022-10-30T16:10:18.254Z,7.03
2022-10-30T16:12:46.697Z,8.23
2022-10-30T16:15:19.886Z,4.50
2022-10-30T16:17:51.789Z,4.73
2022-10-30T16:20:22.778Z,6.90
2022-10-30T16:22:52.443Z,4.80
2022-10-30T16:25:20.656Z,7.23
2022-10-30T16:27:48.920Z,9.73
2022-10-30T16:30:17.244Z,4.77
2022-10-30T16:32:45.531Z,7.20
2022-10-30T16:35:13.919Z,7.43
2022-10-30T16:37:43.348Z,5.07
2022-10-30T16:40:14.176Z,5.50
2022-10-30T16:42:42.470Z,6.73
2022-10-30T16:45:29.268Z,5.70
2022-10-30T16:47:58.334Z,7.47
2022-10-30T16:50:28.501Z,2.63
2022-10-30T16:52:57.336Z,3.00
2022-10-30T16:55:27.160Z,5.73
2022-10-30T16:57:55.978Z,12.43
2022-10-30T17:00:27.117Z,5.90
2022-10-30T17:02:56.522Z,5.27
2022-10-30T17:05:25.470Z,3.13
2022-10-30T17:07:57.107Z,5.37
2022-10-30T17:10:33.182Z,3.90
2022-10-30T17:13:16.336Z,5.10
2022-10-30T17:15:44.743Z,7.93
2022-10-30T17:18:13.556Z,6.47
2022-10-30T17:20:41.818Z,16.30
2022-10-30T17:23:15.452Z,11.37
2022-10-30T17:25:45.067Z,15.33
2022-10-30T17:28:26.036Z,16.33
2022-10-30T17:30:54.341Z,23.80
2022-10-30T17:33:35.175Z,19.77
2022-10-30T17:36:03.452Z,12.77
2022-10-30T17:38:31.748Z,18.03
2022-10-30T17:41:01.478Z,16.97
2022-10-30T17:43:30.132Z,13.53
2022-10-30T17:45:58.555Z,10.93
2022-10-30T17:48:27.659Z,12.73
2022-10-30T17:50:55.926Z,12.17
2022-10-30T17:53:24.691Z,7.17
2022-10-30T17:55:55.975Z,6.47
2022-10-30T17:58:26.673Z,7.03
2022-10-30T18:00:54.962Z,17.53
2022-10-30T18:03:23.272Z,7.20
2022-10-30T18:05:51.699Z,10.93
2022-10-30T18:08:19.942Z,6.00
2022-10-30T18:10:48.187Z,12.23
2022-10-30T18:13:16.637Z,6.47
2022-10-30T18:15:46.688Z,4.37
2022-10-30T18:18:14.912Z,6.20
2022-10-30T18:20:43.320Z,3.80
2022-10-30T18:23:31.601Z,7.50
2022-10-30T18:26:02.369Z,7.53
2022-10-30T18:28:30.638Z,5.67
2022-10-30T18:31:01.185Z,4.43
2022-10-30T18:33:29.602Z,6.37
2022-10-30T18:36:00.771Z,7.23
2022-10-30T18:38:28.998Z,4.07
2022-10-30T18:40:57.290Z,3.70
2022-10-30T18:43:25.731Z,3.97
2022-10-30T18:45:54.033Z,5.00
2022-10-30T18:48:23.795Z,3.57
2022-10-30T18:50:52.090Z,5.63
2022-10-30T18:53:21.064Z,4.60
2022-10-30T18:55:49.306Z,3.03
2022-10-30T18:58:17.548Z,4.50
2022-10-30T19:01:10.693Z,4.27
2022-10-30T19:03:35.572Z,5.53
2022-10-30T19:06:03.907Z,2.23
2022-10-30T19:08:32.175Z,2.97
2022-10-30T19:11:00.445Z,2.97
2022-10-30T19:13:28.882Z,2.10
2022-10-30T19:16:00.381Z,4.83
2022-10-30T19:18:31.074Z,3.93
2022-10-30T19:21:05.891Z,2.63
2022-10-30T19:23:35.503Z,3.93
2022-10-30T19:26:03.874Z,2.80
2022-10-30T19:28:32.785Z,2.87
2022-10-30T19:31:01.092Z,2.17
2022-10-30T19:33:29.345Z,3.33
2022-10-30T19:35:57.685Z,4.10
2022-10-30T19:38:27.479Z,3.43
2022-10-30T19:40:55.854Z,5.27
2022-10-30T19:43:24.199Z,1.50
2022-10-30T19:45:55.610Z,3.63
2022-10-30T19:48:55.483Z,7.80
2022-10-30T19:51:12.697Z,3.77
2022-10-30T19:53:42.341Z,4.77
2022-10-30T19:56:11.394Z,4.13
2022-10-30T19:58:39.731Z,3.07
2022-10-30T20:01:08.090Z,2.10
2022-10-30T20:03:36.461Z,1.00
2022-10-30T20:06:04.926Z,1.73
2022-10-30T20:08:33.189Z,2.10
2022-10-30T20:11:02.890Z,3.40
2022-10-30T20:13:33.372Z,2.70
2022-10-30T20:16:03.367Z,1.87
2022-10-30T20:18:32.049Z,3.33
2022-10-30T20:21:00.718Z,1.87
2022-10-30T20:23:28.999Z,2.60
2022-10-30T20:25:59.073Z,1.70
2022-10-30T20:28:30.092Z,1.67
2022-10-30T20:30:58.349Z,1.47
2022-10-30T20:33:26.599Z,1.50
2022-10-30T20:35:55.713Z,2.53
2022-10-30T20:38:26.122Z,2.37
2022-10-30T20:40:54.542Z,2.83
2022-10-30T20:43:23.398Z,1.03
2022-10-30T20:45:53.045Z,1.20
2022-10-30T20:48:21.330Z,2.00
2022-10-30T20:50:50.912Z,3.97
2022-10-30T20:53:19.326Z,1.13
2022-10-30T20:55:47.586Z,2.97
2022-10-30T20:58:16.015Z,2.60
2022-10-30T21:00:44.552Z,1.27
2022-10-30T21:03:15.315Z,0.90
2022-10-30T21:05:45.172Z,2.33
2022-10-30T21:08:14.239Z,1.23
2022-10-30T21:10:42.642Z,1.23
2022-10-30T21:13:11.504Z,1.97
2022-10-30T21:15:40.469Z,0.90
2022-10-30T21:18:08.784Z,1.17
2022-10-30T21:20:39.011Z,1.80
2022-10-30T21:23:07.489Z,0.90
2022-10-30T21:25:35.820Z,1.50
2022-10-30T21:28:04.352Z,1.60
2022-10-30T21:30:32.676Z,1.87
2022-10-30T21:33:01.146Z,1.73
2022-10-30T21:35:29.777Z,0.97
2022-10-30T21:37:59.395Z,1.27
2022-10-30T21:40:27.672Z,1.27
2022-10-30T21:42:58.506Z,0.50
2022-10-30T21:45:29.715Z,1.13
2022-10-30T21:47:58.036Z,1.67
2022-10-30T21:50:26.319Z,1.83
2022-10-30T21:52:54.561Z,1.57
2022-10-30T21:55:24.415Z,0.90
2022-10-30T21:57:52.660Z,0.97
2022-10-30T22:00:20.972Z,0.90
2022-10-30T22:02:49.388Z,0.70
2022-10-30T22:05:17.711Z,2.37
2022-10-30T22:07:45.971Z,1.63
2022-10-30T22:10:14.411Z,1.97
2022-10-30T22:12:44.058Z,0.60
2022-10-30T22:15:12.507Z,2.43
2022-10-30T22:17:40.942Z,4.40
2022-10-30T22:20:10.078Z,0.93
2022-10-30T22:22:38.372Z,1.00
2022-10-30T22:25:07.084Z,0.70
2022-10-30T22:27:35.355Z,0.40
2022-10-30T22:30:05.122Z,0.50
2022-10-30T22:32:33.432Z,0.63
2022-10-30T22:35:02.127Z,0.83
2022-10-30T22:37:30.386Z,0.93
2022-10-30T22:39:58.766Z,1.13
2022-10-30T22:42:27.043Z,1.37
2022-10-30T22:44:55.298Z,1.03
2022-10-30T22:47:25.058Z,1.37
2022-10-30T22:49:53.304Z,1.13
2022-10-30T22:52:22.827Z,5.93
2022-10-30T22:54:51.181Z,0.60
2022-10-30T22:57:19.711Z,1.83
2022-10-30T22:59:47.939Z,0.83
2022-10-30T23:02:16.207Z,1.07
2022-10-30T23:04:45.793Z,1.10
2022-10-30T23:07:14.036Z,0.60
2022-10-30T23:09:42.315Z,0.60
2022-10-30T23:12:10.623Z,0.73
2022-10-30T23:14:38.874Z,1.00
2022-10-30T23:17:07.228Z,1.33
2022-10-30T23:19:35.507Z,0.83
2022-10-30T23:22:05.136Z,0.73
2022-10-30T23:24:33.915Z,0.73
2022-10-30T23:27:02.206Z,1.33
2022-10-30T23:29:30.467Z,1.50
2022-10-30T23:31:58.750Z,0.37
2022-10-30T23:34:27.036Z,1.83
2022-10-30T23:36:57.773Z,1.03
2022-10-30T23:39:30.534Z,0.50
2022-10-30T23:41:58.846Z,1.13
2022-10-30T23:44:27.106Z,0.40
2022-10-30T23:46:55.352Z,0.63
2022-10-30T23:49:23.606Z,1.40
2022-10-30T23:51:51.870Z,0.60
2022-10-30T23:54:20.122Z,1.40
2022-10-30T23:56:49.814Z,0.87
2022-10-30T23:59:18.070Z,0.63
